Time;durP1;ratioP1;P1;durP2;ratioP2;P2;SDS_P1;SDS_P2;PMS_P1;PMS_P2;Temp;Humidity;BMP_temperature;BMP_pressure;BME280_temperature;BME280_humidity;BME280_pressure;Samples;Min_cycle;Max_cycle;Signal;HPM_P1;HPM_P2
2022/11/08 00:01:54;;;;;;;14.00;7.73;;;;;;;6.38;100.00;99976.94;5019165;28;20262;-60
2022/11/08 00:04:20;;;;;;;16.53;7.80;;;;;;;6.40;100.00;99975.16;5053424;28;20661;-60
2022/11/08 00:14:58;;;;;;;12.70;8.03;;;;;;;6.17;100.00;99991.38;5051084;28;20648;-59
2022/11/08 00:17:25;;;;;;;10.00;7.30;;;;;;;6.28;100.00;99993.50;5022483;28;20231;-59
2022/11/08 00:19:51;;;;;;;11.50;7.30;;;;;;;6.28;100.00;99981.56;5020286;28;20556;-60
2022/11/08 00:22:18;;;;;;;11.17;6.87;;;;;;;6.36;100.00;99970.22;5017402;28;20242;-59
2022/11/08 00:24:44;;;;;;;16.03;7.80;;;;;;;6.26;100.00;99978.25;5033071;28;20582;-61
2022/11/08 00:27:15;;;;;;;12.47;7.77;;;;;;;6.09;100.00;99989.09;5050614;28;20270;-59
2022/11/08 00:29:41;;;;;;;10.20;7.20;;;;;;;6.14;100.00;99981.28;5033373;28;20183;-61
2022/11/08 00:32:12;;;;;;;14.07;8.33;;;;;;;6.21;100.00;99977.56;5034598;28;20762;-60
2022/11/08 00:34:38;;;;;;;13.93;7.30;;;;;;;6.22;100.00;99978.41;5033177;28;20179;-59
2022/11/08 00:37:04;;;;;;;10.40;7.10;;;;;;;5.88;100.00;99980.50;5050287;28;20210;-60
2022/11/08 00:39:29;;;;;;;11.97;8.20;;;;;;;6.02;100.00;99967.25;5050981;28;20236;-59
2022/11/08 00:41:55;;;;;;;12.30;7.17;;;;;;;6.12;100.00;99966.00;5055286;28;20231;-59
2022/11/08 00:44:21;;;;;;;13.23;8.13;;;;;;;6.10;100.00;99979.72;5052729;28;20180;-59
2022/11/08 00:46:46;;;;;;;15.47;8.27;;;;;;;5.91;100.00;99971.88;5036454;28;20213;-59
2022/11/08 00:49:12;;;;;;;14.10;7.73;;;;;;;5.98;100.00;99970.78;5036571;28;20224;-59
2022/11/08 00:51:37;;;;;;;13.27;7.30;;;;;;;6.01;100.00;99973.22;5047641;28;20521;-59
2022/11/08 00:54:04;;;;;;;16.00;8.00;;;;;;;5.92;100.00;99976.94;5054255;28;20188;-59
2022/11/08 00:56:30;;;;;;;12.07;7.77;;;;;;;5.94;100.00;99974.31;5032953;28;20208;-59
2022/11/08 00:58:57;;;;;;;13.43;7.17;;;;;;;5.96;100.00;99967.44;5050452;28;20178;-59
2022/11/08 01:01:22;;;;;;;13.40;7.67;;;;;;;5.96;100.00;99965.69;5037856;28;20224;-59
2022/11/08 01:03:48;;;;;;;10.67;7.60;;;;;;;5.93;100.00;99968.38;5046113;28;20306;-59
2022/11/08 01:06:16;;;;;;;12.53;7.93;;;;;;;5.86;100.00;99968.69;5045863;28;20174;-65
2022/11/08 01:08:41;;;;;;;11.43;7.63;;;;;;;5.85;100.00;99965.28;5036008;28;20209;-61
2022/11/08 01:11:11;;;;;;;12.43;7.33;;;;;;;5.84;100.00;99955.13;5052711;28;20218;-60
2022/11/08 01:13:36;;;;;;;9.77;6.47;;;;;;;5.70;100.00;99956.47;5042222;28;20208;-60
2022/11/08 01:16:11;;;;;;;11.20;8.07;;;;;;;5.69;100.00;99949.69;5054477;28;20188;-59
2022/11/08 01:18:36;;;;;;;18.03;8.60;;;;;;;5.81;100.00;99958.63;5053788;28;20191;-61
2022/11/08 01:21:02;;;;;;;17.13;8.23;;;;;;;5.81;100.00;99953.53;5051080;28;20226;-60
2022/11/08 01:23:29;;;;;;;19.23;8.93;;;;;;;5.80;100.00;99955.25;5044997;28;20259;-59
2022/11/08 01:25:54;;;;;;;26.47;9.63;;;;;;;5.73;100.00;99946.16;5054123;28;20186;-59
2022/11/08 01:28:20;;;;;;;26.50;10.70;;;;;;;5.73;100.00;99951.25;5053317;28;20216;-59
2022/11/08 01:30:46;;;;;;;17.20;9.43;;;;;;;5.55;100.00;99946.84;5049429;28;20239;-60
2022/11/08 01:33:13;;;;;;;19.10;9.70;;;;;;;5.64;100.00;99942.22;5063834;28;20228;-60
2022/11/08 01:35:39;;;;;;;16.70;9.03;;;;;;;5.54;100.00;99940.88;5035698;28;20201;-60
2022/11/08 01:38:05;;;;;;;22.23;9.27;;;;;;;5.58;100.00;99949.25;5035253;28;20221;-60
2022/11/08 01:40:32;;;;;;;16.67;8.03;;;;;;;5.33;100.00;99943.31;5047490;28;20243;-59
2022/11/08 01:42:57;;;;;;;17.57;8.93;;;;;;;5.43;100.00;99948.09;5047917;28;20689;-61
2022/11/08 01:46:00;;;;;;;15.97;8.73;;;;;;;5.34;100.00;99939.88;5035952;28;20215;-59
2022/11/08 01:48:28;;;;;;;23.40;10.17;;;;;;;5.44;100.00;99935.28;5041926;28;20212;-59
2022/11/08 01:50:56;;;;;;;13.93;8.70;;;;;;;5.42;100.00;99933.66;5032196;28;20304;-59
2022/11/08 01:53:22;;;;;;;15.67;8.90;;;;;;;5.34;100.00;99931.41;5019101;28;20274;-60
2022/11/08 01:55:48;;;;;;;12.47;7.50;;;;;;;5.34;100.00;99923.75;5034603;28;20183;-59
2022/11/08 01:58:18;;;;;;;16.73;8.33;;;;;;;5.33;100.00;99920.38;5039110;28;20671;-60
2022/11/08 02:00:43;;;;;;;8.63;7.10;;;;;;;5.31;100.00;99921.31;5031092;28;20274;-59
2022/11/08 02:03:12;;;;;;;12.90;7.50;;;;;;;5.22;100.00;99916.53;5063848;28;20185;-59
2022/11/08 02:05:38;;;;;;;17.13;7.37;;;;;;;5.12;100.00;99921.97;5040065;28;20184;-60
2022/11/08 02:08:12;;;;;;;15.97;8.10;;;;;;;5.11;100.00;99922.00;5034690;28;20286;-59
2022/11/08 02:10:40;;;;;;;12.77;8.47;;;;;;;5.14;100.00;99927.00;5042836;28;20228;-59
2022/11/08 02:13:26;;;;;;;9.90;7.20;;;;;;;5.08;100.00;99928.03;5021522;28;20182;-59
2022/11/08 02:15:52;;;;;;;13.20;7.57;;;;;;;5.15;100.00;99923.56;5053125;28;20185;-60
2022/11/08 02:18:20;;;;;;;15.27;8.30;;;;;;;5.18;100.00;99915.81;5052655;28;20239;-60
2022/11/08 02:20:58;;;;;;;12.90;8.30;;;;;;;5.10;100.00;99917.81;5030933;28;20224;-60
2022/11/08 02:23:50;;;;;;;11.77;7.50;;;;;;;5.09;100.00;99914.41;5044035;28;20196;-59
2022/11/08 02:26:18;;;;;;;13.37;8.43;;;;;;;5.10;100.00;99907.59;5034607;28;20177;-63
2022/11/08 02:28:46;;;;;;;27.13;9.73;;;;;;;5.24;100.00;99910.47;5035089;28;20714;-60
2022/11/08 02:31:13;;;;;;;20.20;9.23;;;;;;;5.40;100.00;99912.50;5033828;28;20232;-60
2022/11/08 02:33:40;;;;;;;54.97;12.17;;;;;;;5.41;100.00;99906.50;5041713;28;20197;-60
2022/11/08 02:36:07;;;;;;;48.60;10.17;;;;;;;5.40;100.00;99894.66;5034549;28;20209;-59
2022/11/08 02:38:43;;;;;;;32.80;9.53;;;;;;;5.37;100.00;99889.63;5067487;28;20572;-62
2022/11/08 02:41:09;;;;;;;20.63;8.90;;;;;;;5.33;100.00;99892.31;5033759;28;20220;-59
2022/11/08 02:43:34;;;;;;;34.60;8.90;;;;;;;5.37;100.00;99893.03;5040916;28;20192;-59
2022/11/08 02:45:59;;;;;;;55.33;11.27;;;;;;;5.28;100.00;99883.16;5052414;28;20205;-59
2022/11/08 02:48:25;;;;;;;28.63;9.50;;;;;;;5.29;100.00;99884.81;5051792;28;20201;-60
2022/11/08 02:50:51;;;;;;;40.13;10.30;;;;;;;5.30;100.00;99883.94;5022870;28;20283;-59
2022/11/08 02:53:17;;;;;;;52.03;10.50;;;;;;;5.14;100.00;99876.81;5051845;28;20190;-61
2022/11/08 02:55:43;;;;;;;47.40;11.07;;;;;;;5.24;100.00;99882.44;5034375;28;20249;-60
2022/11/08 02:58:08;;;;;;;42.27;12.33;;;;;;;4.93;100.00;99888.59;5064912;28;20272;-60
2022/11/08 03:00:34;;;;;;;19.40;10.40;;;;;;;4.81;100.00;99881.38;5046499;28;20220;-59
2022/11/08 03:02:59;;;;;;;21.37;9.73;;;;;;;4.73;100.00;99879.09;5046764;28;20195;-60
2022/11/08 03:05:27;;;;;;;16.13;8.57;;;;;;;4.90;100.00;99873.44;5066018;28;20668;-59
2022/11/08 03:07:52;;;;;;;34.43;9.97;;;;;;;5.00;100.00;99872.22;5033669;28;20202;-59
2022/11/08 03:10:19;;;;;;;31.33;8.53;;;;;;;5.04;100.00;99872.13;5025919;28;20603;-59
2022/11/08 03:12:44;;;;;;;26.03;10.30;;;;;;;5.11;100.00;99871.00;5065396;28;20181;-59
2022/11/08 03:15:11;;;;;;;52.27;10.37;;;;;;;5.08;100.00;99866.84;5052232;28;20181;-60
2022/11/08 03:17:36;;;;;;;79.57;11.83;;;;;;;5.08;100.00;99860.94;5033434;28;20183;-60
2022/11/08 03:20:02;;;;;;;21.87;9.50;;;;;;;4.95;100.00;99858.81;5034088;28;20184;-64
2022/11/08 03:22:27;;;;;;;12.37;8.83;;;;;;;5.00;100.00;99849.28;5057064;28;20301;-60
2022/11/08 03:24:53;;;;;;;15.20;9.37;;;;;;;5.06;100.00;99855.88;5034158;28;20204;-59
2022/11/08 03:27:19;;;;;;;13.03;9.47;;;;;;;5.11;100.00;99848.91;5051309;28;20175;-60
2022/11/08 03:29:44;;;;;;;12.00;9.10;;;;;;;5.11;100.00;99856.56;5033855;28;20177;-59
2022/11/08 03:32:10;;;;;;;14.00;10.03;;;;;;;5.20;100.00;99855.38;5056799;28;20216;-59
2022/11/08 03:34:35;;;;;;;15.53;9.83;;;;;;;5.20;100.00;99847.72;5051915;28;20194;-59
2022/11/08 03:37:00;;;;;;;21.93;10.93;;;;;;;5.21;100.00;99848.56;5050926;28;20303;-60
2022/11/08 03:39:26;;;;;;;17.87;10.00;;;;;;;5.14;100.00;99851.31;5033948;28;20197;-59
2022/11/08 03:41:51;;;;;;;24.60;10.20;;;;;;;5.13;100.00;99851.38;5055291;28;20224;-61
2022/11/08 03:44:16;;;;;;;35.97;11.73;;;;;;;5.15;100.00;99852.19;5052873;28;20188;-60
2022/11/08 03:46:42;;;;;;;33.07;11.60;;;;;;;5.22;100.00;99840.03;5050382;28;20194;-60
2022/11/08 03:49:07;;;;;;;30.17;10.27;;;;;;;5.15;100.00;99847.06;5051081;28;21430;-60
2022/11/08 03:51:32;;;;;;;36.30;11.93;;;;;;;5.22;100.00;99847.66;5053022;28;20231;-59
2022/11/08 03:53:57;;;;;;;29.87;10.40;;;;;;;5.27;100.00;99836.44;5055742;28;20201;-60
2022/11/08 03:56:23;;;;;;;32.67;10.63;;;;;;;5.28;100.00;99835.53;5050608;28;20178;-59
2022/11/08 03:58:48;;;;;;;56.20;11.63;;;;;;;5.10;100.00;99842.13;5065056;28;20275;-59
2022/11/08 04:01:14;;;;;;;29.33;10.27;;;;;;;5.06;100.00;99838.03;5041049;28;20230;-59
2022/11/08 04:03:39;;;;;;;26.20;10.20;;;;;;;5.05;100.00;99835.53;5042816;28;20173;-59
2022/11/08 04:06:04;;;;;;;51.07;10.70;;;;;;;4.98;100.00;99815.34;5058032;28;20174;-59
2022/11/08 04:08:30;;;;;;;56.23;11.03;;;;;;;4.87;100.00;99819.19;5050666;28;20201;-59
2022/11/08 04:10:56;;;;;;;27.33;10.00;;;;;;;4.91;100.00;99826.69;5047816;28;20212;-58
2022/11/08 04:16:06;;;;;;;16.23;9.40;;;;;;;4.85;100.00;99803.97;5049122;28;20259;-59
2022/11/08 04:21:17;;;;;;;13.00;9.00;;;;;;;5.07;100.00;99821.84;5040706;28;20743;-59
2022/11/08 04:23:43;;;;;;;14.43;9.10;;;;;;;5.08;100.00;99813.31;5043618;28;20199;-60
2022/11/08 04:26:10;;;;;;;12.03;9.27;;;;;;;5.20;100.00;99811.19;5037257;28;20632;-59
2022/11/08 04:28:37;;;;;;;12.47;8.97;;;;;;;5.11;100.00;99818.31;5054572;28;20280;-59
2022/11/08 04:31:12;;;;;;;11.13;8.63;;;;;;;5.11;100.00;99813.22;4995792;28;20628;-59
2022/11/08 04:33:38;;;;;;;17.83;9.00;;;;;;;5.28;100.00;99804.94;5043360;28;20249;-60
2022/11/08 04:36:06;;;;;;;25.40;9.97;;;;;;;5.20;100.00;99811.19;5054768;28;20198;-60
2022/11/08 04:38:32;;;;;;;27.63;10.37;;;;;;;5.26;100.00;99800.75;5054445;28;20226;-60
2022/11/08 04:41:10;;;;;;;36.60;10.73;;;;;;;5.29;100.00;99796.38;5051667;28;20226;-61
2022/11/08 04:43:35;;;;;;;31.23;9.57;;;;;;;5.15;100.00;99804.53;5025987;28;20243;-60
2022/11/08 04:46:09;;;;;;;89.23;12.27;;;;;;;5.37;100.00;99801.22;5054397;28;20934;-60
2022/11/08 04:48:34;;;;;;;65.27;12.07;;;;;;;5.28;100.00;99799.84;5054384;28;20197;-60
2022/11/08 04:51:05;;;;;;;38.17;10.27;;;;;;;5.35;100.00;99805.53;5026464;28;20253;-61
2022/11/08 04:53:30;;;;;;;57.03;11.60;;;;;;;5.43;100.00;99806.09;5032952;28;20247;-61
2022/11/08 04:56:05;;;;;;;38.77;11.23;;;;;;;5.35;100.00;99800.44;5030731;28;20198;-60
2022/11/08 04:58:41;;;;;;;80.17;12.97;;;;;;;5.06;100.00;99797.25;5037965;28;20700;-60
2022/11/08 05:01:08;;;;;;;66.67;12.63;;;;;;;5.00;100.00;99789.81;5025737;28;20277;-60
2022/11/08 05:03:34;;;;;;;37.57;10.40;;;;;;;5.09;100.00;99778.47;5034929;28;20644;-60
2022/11/08 05:06:01;;;;;;;26.43;9.40;;;;;;;4.90;100.00;99784.22;5057221;28;20256;-61
2022/11/08 05:08:26;;;;;;;31.97;9.43;;;;;;;4.89;100.00;99781.72;5053419;28;20202;-61
2022/11/08 05:10:52;;;;;;;22.77;9.67;;;;;;;4.95;100.00;99777.25;5050622;28;20235;-61
2022/11/08 05:13:17;;;;;;;24.83;9.27;;;;;;;4.94;100.00;99772.19;5063634;28;20251;-60
2022/11/08 05:15:43;;;;;;;13.87;8.30;;;;;;;4.92;100.00;99773.97;5069749;28;20277;-60
2022/11/08 05:18:08;;;;;;;16.17;9.30;;;;;;;4.83;100.00;99765.75;5053719;28;20179;-60
2022/11/08 05:23:23;;;;;;;17.30;9.10;;;;;;;4.69;100.00;99766.25;5063604;28;20654;-61
2022/11/08 05:25:49;;;;;;;17.67;8.73;;;;;;;4.66;100.00;99765.53;5054265;28;20659;-61
2022/11/08 05:28:15;;;;;;;11.43;9.87;;;;;;;4.68;100.00;99762.03;5035518;28;20210;-60
2022/11/08 05:30:40;;;;;;;10.53;8.77;;;;;;;4.57;100.00;99765.88;5048763;28;20216;-61
2022/11/08 05:33:06;;;;;;;31.00;9.07;;;;;;;4.59;100.00;99761.53;5064333;28;20252;-61
2022/11/08 05:35:35;;;;;;;53.23;10.73;;;;;;;4.34;100.00;99767.47;5053997;28;20229;-60
2022/11/08 05:38:00;;;;;;;56.27;17.87;;;;;;;4.43;100.00;99766.34;5035354;28;20248;-60
2022/11/08 05:40:26;;;;;;;37.40;12.67;;;;;;;4.44;100.00;99775.63;5044442;28;20605;-60
2022/11/08 05:42:53;;;;;;;41.53;11.93;;;;;;;4.51;100.00;99770.31;5060337;28;20293;-60
2022/11/08 05:45:19;;;;;;;24.87;10.03;;;;;;;4.45;100.00;99767.13;5036005;28;20181;-60
2022/11/08 05:47:45;;;;;;;19.57;11.00;;;;;;;4.50;100.00;99760.16;5052950;28;20201;-60
2022/11/08 05:50:11;;;;;;;20.77;12.00;;;;;;;4.44;100.00;99745.94;5026266;28;20177;-61
2022/11/08 05:52:36;;;;;;;19.67;10.70;;;;;;;4.44;100.00;99745.06;5067882;28;20625;-59
2022/11/08 05:55:01;;;;;;;15.00;11.07;;;;;;;4.41;100.00;99756.19;5053684;28;20190;-60
2022/11/08 05:57:27;;;;;;;12.87;10.57;;;;;;;4.38;100.00;99756.31;5060790;28;20200;-61
2022/11/08 05:59:52;;;;;;;14.30;10.10;;;;;;;4.28;100.00;99758.34;5059505;28;20181;-61
2022/11/08 06:02:17;;;;;;;13.83;9.87;;;;;;;4.27;100.00;99750.78;5058866;28;20232;-61
2022/11/08 06:04:43;;;;;;;13.70;10.00;;;;;;;4.20;100.00;99761.16;5072551;28;20191;-60
2022/11/08 06:07:08;;;;;;;15.77;10.03;;;;;;;4.28;100.00;99765.13;5037299;28;20264;-60
2022/11/08 06:09:33;;;;;;;17.47;10.43;;;;;;;4.19;100.00;99748.47;5053520;28;20518;-60
2022/11/08 06:11:59;;;;;;;15.07;10.73;;;;;;;4.10;100.00;99736.88;5057948;28;20613;-61
2022/11/08 06:14:24;;;;;;;13.83;10.57;;;;;;;4.14;100.00;99725.72;5053552;28;20268;-60
2022/11/08 06:16:49;;;;;;;16.43;10.33;;;;;;;4.17;100.00;99728.16;5052712;28;20629;-60
2022/11/08 06:19:14;;;;;;;12.57;10.53;;;;;;;4.18;100.00;99737.47;5053082;28;20181;-60
2022/11/08 06:21:40;;;;;;;10.90;9.30;;;;;;;3.99;100.00;99738.94;5055698;28;20579;-61
2022/11/08 06:24:05;;;;;;;13.30;11.17;;;;;;;3.90;100.00;99729.91;5056052;28;20189;-60
2022/11/08 06:26:30;;;;;;;13.50;10.83;;;;;;;4.06;100.00;99726.84;5051402;28;20181;-60
2022/11/08 06:28:56;;;;;;;13.53;11.27;;;;;;;4.13;100.00;99730.84;5053005;28;20264;-60
2022/11/08 06:31:21;;;;;;;13.13;11.17;;;;;;;4.25;100.00;99739.78;5052946;28;20636;-61
2022/11/08 06:33:46;;;;;;;16.63;11.93;;;;;;;4.23;100.00;99741.56;5040600;28;20284;-61
2022/11/08 06:36:12;;;;;;;16.20;11.07;;;;;;;4.25;100.00;99752.53;5034878;28;20199;-62
2022/11/08 06:38:37;;;;;;;13.40;10.60;;;;;;;4.29;100.00;99748.97;5052494;28;20366;-61
2022/11/08 06:41:03;;;;;;;14.70;10.70;;;;;;;4.00;100.00;99746.53;5033941;28;20324;-60
2022/11/08 06:43:28;;;;;;;11.53;10.03;;;;;;;4.12;100.00;99752.09;5056337;28;20873;-60
2022/11/08 06:45:53;;;;;;;11.00;9.40;;;;;;;4.22;100.00;99753.47;5052532;28;20196;-60
2022/11/08 06:48:18;;;;;;;8.83;7.93;;;;;;;4.29;100.00;99759.16;5051850;28;20526;-61
2022/11/08 06:50:44;;;;;;;9.50;8.60;;;;;;;4.16;100.00;99759.59;5047754;28;20274;-63
2022/11/08 06:53:13;;;;;;;12.73;8.73;;;;;;;4.31;100.00;99759.97;5045444;28;20612;-60
2022/11/08 06:55:39;;;;;;;9.60;8.60;;;;;;;4.38;100.00;99763.97;5034343;28;20182;-60
2022/11/08 06:58:04;;;;;;;9.27;7.83;;;;;;;4.17;100.00;99756.16;5039962;28;20646;-60
2022/11/08 07:00:30;;;;;;;8.90;8.00;;;;;;;4.46;100.00;99756.88;5028269;28;20227;-60
2022/11/08 07:03:00;;;;;;;9.37;7.60;;;;;;;4.56;100.00;99756.56;5047269;28;20190;-60
2022/11/08 07:05:28;;;;;;;11.07;7.87;;;;;;;4.60;100.00;99764.06;5048262;28;20208;-61
2022/11/08 07:07:53;;;;;;;9.53;8.63;;;;;;;4.66;100.00;99761.28;5051805;28;20197;-60
2022/11/08 07:10:23;;;;;;;8.90;8.00;;;;;;;4.59;100.00;99756.44;5043445;28;20637;-60
2022/11/08 07:12:58;;;;;;;9.03;8.13;;;;;;;4.69;100.00;99760.34;5065102;28;20640;-61
2022/11/08 07:15:23;;;;;;;9.57;8.60;;;;;;;4.85;100.00;99758.91;5033992;28;20543;-61
2022/11/08 07:17:48;;;;;;;10.33;9.20;;;;;;;4.88;100.00;99768.16;5051876;28;20177;-60
2022/11/08 07:20:14;;;;;;;9.90;8.67;;;;;;;5.07;100.00;99775.13;5043089;28;20178;-60
2022/11/08 07:22:39;;;;;;;8.87;8.07;;;;;;;5.24;100.00;99777.88;5065746;28;20265;-60
2022/11/08 07:25:05;;;;;;;8.33;7.63;;;;;;;5.42;100.00;99761.06;5052026;28;20185;-61
2022/11/08 07:27:30;;;;;;;12.03;8.80;;;;;;;5.43;100.00;99766.97;5033361;28;20196;-62
2022/11/08 07:29:55;;;;;;;11.43;8.27;;;;;;;5.60;100.00;99777.34;5031921;28;20850;-61
2022/11/08 07:32:21;;;;;;;11.30;8.77;;;;;;;5.77;100.00;99780.97;5036437;28;20235;-61
2022/11/08 07:34:46;;;;;;;9.30;8.20;;;;;;;5.94;100.00;99770.06;5051456;28;20546;-61
2022/11/08 07:37:11;;;;;;;22.20;9.43;;;;;;;5.84;100.00;99772.16;5050026;28;20245;-62
2022/11/08 07:39:37;;;;;;;12.17;8.70;;;;;;;5.89;100.00;99769.44;5051174;28;20181;-61
2022/11/08 07:42:02;;;;;;;17.57;9.17;;;;;;;6.07;100.00;99766.16;5030881;28;20620;-63
2022/11/08 07:44:27;;;;;;;10.63;8.37;;;;;;;6.07;100.00;99781.47;5048528;28;20255;-62
2022/11/08 07:46:54;;;;;;;11.83;8.57;;;;;;;6.14;100.00;99782.06;5050868;28;20179;-61
2022/11/08 07:49:19;;;;;;;10.77;8.00;;;;;;;6.07;100.00;99776.38;5033173;28;20229;-60
2022/11/08 07:51:45;;;;;;;14.90;7.87;;;;;;;6.18;100.00;99773.38;5010195;28;20227;-60
2022/11/08 07:54:10;;;;;;;10.63;8.83;;;;;;;6.32;100.00;99795.78;5047873;28;20188;-60
2022/11/08 07:56:35;;;;;;;11.50;7.67;;;;;;;6.35;100.00;99782.06;5051088;28;20204;-61
2022/11/08 07:59:00;;;;;;;8.83;7.20;;;;;;;6.30;100.00;99795.00;5063288;28;20219;-61
2022/11/08 08:01:26;;;;;;;9.43;7.93;;;;;;;6.34;100.00;99786.34;5042866;28;20216;-61
2022/11/08 08:03:51;;;;;;;11.40;8.40;;;;;;;6.16;100.00;99787.94;5060858;28;20184;-61
2022/11/08 08:06:16;;;;;;;10.10;8.27;;;;;;;6.18;100.00;99783.59;5060310;28;20224;-62
2022/11/08 08:08:42;;;;;;;10.33;6.93;;;;;;;6.19;100.00;99792.06;5051222;28;20204;-61
2022/11/08 08:11:08;;;;;;;11.13;7.87;;;;;;;6.03;100.00;99785.06;5049476;28;20234;-63
2022/11/08 08:13:34;;;;;;;11.50;7.23;;;;;;;5.94;100.00;99772.63;5040542;28;20182;-62
2022/11/08 08:16:00;;;;;;;10.00;8.23;;;;;;;5.95;100.00;99780.25;5030328;28;20577;-62
2022/11/08 08:18:26;;;;;;;9.03;7.83;;;;;;;6.29;100.00;99781.41;5058732;28;20177;-61
2022/11/08 08:20:51;;;;;;;10.43;8.23;;;;;;;6.32;100.00;99774.53;5029679;28;20313;-60
2022/11/08 08:23:16;;;;;;;9.27;8.27;;;;;;;6.27;100.00;99764.50;5059710;28;20271;-60
2022/11/08 08:25:41;;;;;;;14.03;10.33;;;;;;;6.35;100.00;99764.16;5050940;28;20208;-60
2022/11/08 08:28:08;;;;;;;11.33;10.20;;;;;;;6.50;100.00;99773.75;5050229;28;20211;-62
2022/11/08 08:30:34;;;;;;;10.10;9.03;;;;;;;6.71;100.00;99772.00;5006440;28;20223;-61
2022/11/08 08:33:12;;;;;;;15.13;9.57;;;;;;;6.74;100.00;99765.91;5040039;28;20609;-62
2022/11/08 08:35:38;;;;;;;13.40;9.57;;;;;;;6.81;100.00;99762.19;5029562;28;20580;-61
2022/11/08 08:38:05;;;;;;;15.17;11.50;;;;;;;6.98;100.00;99769.09;5032385;28;20220;-61
2022/11/08 08:40:32;;;;;;;13.43;9.97;;;;;;;7.03;100.00;99764.63;5022303;28;20667;-61
2022/11/08 08:42:59;;;;;;;11.43;9.50;;;;;;;7.18;100.00;99763.09;5044456;28;20187;-61
2022/11/08 08:45:25;;;;;;;9.37;8.47;;;;;;;7.14;100.00;99768.41;5051040;28;20193;-60
2022/11/08 08:47:53;;;;;;;10.87;8.07;;;;;;;7.23;100.00;99763.72;5032212;28;20285;-60
2022/11/08 08:50:18;;;;;;;10.60;8.97;;;;;;;7.29;100.00;99769.44;5024767;28;20199;-61
2022/11/08 08:52:44;;;;;;;9.57;8.57;;;;;;;7.30;100.00;99765.97;5047274;28;20664;-61
2022/11/08 08:55:09;;;;;;;10.23;8.83;;;;;;;7.34;100.00;99765.75;5050421;28;20186;-60
2022/11/08 08:57:34;;;;;;;10.00;8.07;;;;;;;7.48;100.00;99766.84;5058973;28;20197;-60
2022/11/08 08:59:59;;;;;;;18.13;8.23;;;;;;;8.92;100.00;99763.16;5056380;28;20235;-60
2022/11/08 09:02:25;;;;;;;13.27;9.57;;;;;;;10.72;100.00;99759.03;5056292;28;20589;-61
2022/11/08 09:04:50;;;;;;;8.87;5.27;;;;;;;12.78;100.00;99750.97;5063714;28;20177;-60
2022/11/08 09:07:15;;;;;;;15.07;5.87;;;;;;;14.14;100.00;99745.56;5054940;28;20196;-61
2022/11/08 09:09:40;;;;;;;9.37;5.23;;;;;;;14.46;100.00;99740.56;5054132;28;20258;-61
2022/11/08 09:12:06;;;;;;;11.60;5.40;;;;;;;15.91;100.00;99749.03;5037894;28;20295;-61
2022/11/08 09:14:31;;;;;;;6.50;5.30;;;;;;;17.91;95.35;99745.69;5054620;28;20189;-61
2022/11/08 09:16:57;;;;;;;7.50;4.70;;;;;;;19.37;80.74;99744.38;5053804;28;20189;-61
2022/11/08 09:19:22;;;;;;;6.73;5.03;;;;;;;20.16;67.83;99738.25;5054259;28;20189;-63
2022/11/08 09:21:48;;;;;;;7.23;4.40;;;;;;;20.98;59.78;99736.16;5042489;28;20217;-62
2022/11/08 09:24:14;;;;;;;5.50;3.93;;;;;;;22.11;54.27;99743.34;5040613;28;20655;-63
2022/11/08 09:26:39;;;;;;;16.07;4.20;;;;;;;22.38;50.51;99747.41;5016018;28;20220;-61
2022/11/08 09:29:05;;;;;;;4.87;3.60;;;;;;;21.32;55.75;99756.94;5052113;28;20335;-61
2022/11/08 09:31:30;;;;;;;6.10;3.93;;;;;;;20.14;62.53;99742.84;5043120;28;20220;-61
2022/11/08 09:33:55;;;;;;;4.90;3.23;;;;;;;19.51;70.97;99749.03;5035148;28;20208;-61
2022/11/08 09:36:20;;;;;;;4.70;3.17;;;;;;;17.89;77.60;99742.41;5053282;28;20189;-60
2022/11/08 09:38:46;;;;;;;4.17;3.17;;;;;;;16.60;97.18;99747.59;5054046;28;20681;-62
2022/11/08 09:41:46;;;;;;;7.60;3.53;;;;;;;14.83;100.00;99752.44;5040966;28;20228;-60
2022/11/08 09:44:37;;;;;;;4.93;3.33;;;;;;;15.33;100.00;99754.56;5052301;28;20637;-62
2022/11/08 09:47:13;;;;;;;6.33;3.60;;;;;;;14.77;100.00;99750.34;5053419;28;20233;-63
2022/11/08 09:49:57;;;;;;;6.33;3.30;;;;;;;15.20;100.00;99746.16;5053424;28;20227;-60
2022/11/08 09:52:25;;;;;;;5.80;2.90;;;;;;;16.68;100.00;99748.72;5022669;28;20233;-65
2022/11/08 09:54:58;;;;;;;6.00;3.10;;;;;;;16.56;98.58;99748.00;5035576;28;20174;-61
2022/11/08 09:57:28;;;;;;;3.53;3.17;;;;;;;16.94;94.78;99749.94;5060170;28;20202;-62
2022/11/08 09:59:59;;;;;;;3.73;2.83;;;;;;;17.05;94.90;99738.56;5041354;28;20221;-64
2022/11/08 10:02:26;;;;;;;4.50;2.90;;;;;;;16.74;96.05;99749.00;5032909;28;20278;-63
2022/11/08 10:04:55;;;;;;;8.33;2.80;;;;;;;15.40;100.00;99747.13;5066362;28;20526;-61
2022/11/08 10:07:31;;;;;;;5.17;3.53;;;;;;;14.24;100.00;99745.72;5035211;28;20219;-61
2022/11/08 10:10:34;;;;;;;6.07;3.40;;;;;;;13.24;100.00;99729.63;5035102;28;20177;-61
2022/11/08 10:13:19;;;;;;;7.83;3.60;;;;;;;12.49;100.00;99735.75;5025274;28;20235;-61
2022/11/08 10:16:17;;;;;;;6.40;3.80;;;;;;;12.30;100.00;99746.47;5021978;28;20519;-60
2022/11/08 10:19:05;;;;;;;5.63;3.47;;;;;;;11.83;100.00;99747.84;5052052;28;20251;-60
2022/11/08 10:21:58;;;;;;;7.40;3.50;;;;;;;11.39;100.00;99745.47;5007260;28;20233;-60
2022/11/08 10:24:41;;;;;;;7.70;3.70;;;;;;;11.04;100.00;99745.94;5051008;28;20186;-61
2022/11/08 10:27:17;;;;;;;5.37;3.87;;;;;;;11.20;100.00;99745.81;5022800;28;20185;-62
2022/11/08 10:29:44;;;;;;;7.70;4.10;;;;;;;11.35;100.00;99756.88;5034245;28;20205;-61
2022/11/08 10:32:15;;;;;;;5.30;4.00;;;;;;;11.65;100.00;99760.16;5040214;28;20232;-61
2022/11/08 10:35:06;;;;;;;6.57;4.20;;;;;;;11.84;100.00;99754.66;5051694;28;20190;-61
2022/11/08 10:37:32;;;;;;;6.70;3.60;;;;;;;12.22;100.00;99759.06;5034103;28;20221;-61
2022/11/08 10:40:04;;;;;;;8.83;3.43;;;;;;;11.76;100.00;99753.41;5052911;28;20185;-62
2022/11/08 10:42:40;;;;;;;10.47;4.10;;;;;;;11.88;100.00;99754.38;5005585;28;20210;-61
2022/11/08 10:45:08;;;;;;;7.43;3.33;;;;;;;11.71;100.00;99747.72;5034571;28;20181;-60
2022/11/08 10:47:33;;;;;;;4.97;3.73;;;;;;;12.09;100.00;99751.31;5051948;28;20537;-61
2022/11/08 10:49:59;;;;;;;5.43;3.70;;;;;;;12.35;100.00;99757.28;5052196;28;20178;-61
2022/11/08 10:52:33;;;;;;;6.33;4.30;;;;;;;12.42;100.00;99737.09;5039910;28;20229;-61
2022/11/08 10:55:00;;;;;;;5.47;4.00;;;;;;;12.61;100.00;99741.78;5052460;28;20271;-62
2022/11/08 10:57:28;;;;;;;9.10;4.00;;;;;;;12.70;100.00;99737.75;5041586;28;20744;-60
2022/11/08 10:59:55;;;;;;;4.97;3.60;;;;;;;12.57;100.00;99732.63;5058190;28;20264;-62
2022/11/08 11:02:28;;;;;;;5.63;4.27;;;;;;;12.97;100.00;99726.44;5041133;28;20220;-61
2022/11/08 11:05:18;;;;;;;4.43;3.60;;;;;;;13.16;100.00;99718.22;5047663;28;20204;-62
2022/11/08 11:07:55;;;;;;;5.43;3.63;;;;;;;13.13;100.00;99716.66;5040610;28;20184;-61
2022/11/08 11:10:33;;;;;;;6.30;3.17;;;;;;;13.08;100.00;99711.84;5026144;28;20235;-61
2022/11/08 11:13:03;;;;;;;6.23;4.10;;;;;;;13.38;100.00;99713.19;5041682;28;20276;-61
2022/11/08 11:15:31;;;;;;;7.17;3.63;;;;;;;13.51;100.00;99714.88;5034176;28;20657;-61
2022/11/08 11:17:57;;;;;;;5.60;3.30;;;;;;;13.69;100.00;99717.88;5051219;28;20188;-61
2022/11/08 11:20:23;;;;;;;4.13;2.93;;;;;;;13.96;100.00;99711.59;5040850;28;20219;-61
2022/11/08 11:22:51;;;;;;;3.70;2.97;;;;;;;14.26;100.00;99700.66;5028993;28;20177;-61
2022/11/08 11:25:22;;;;;;;3.47;2.87;;;;;;;14.28;100.00;99691.03;5032653;28;20209;-63
2022/11/08 11:27:59;;;;;;;6.27;3.20;;;;;;;14.25;100.00;99690.44;5030757;28;20284;-61
2022/11/08 11:30:31;;;;;;;3.50;2.40;;;;;;;14.36;100.00;99705.97;5039859;28;20225;-61
2022/11/08 11:33:23;;;;;;;4.77;2.57;;;;;;;14.46;100.00;99703.50;5023856;28;20181;-61
2022/11/08 11:35:56;;;;;;;6.00;2.53;;;;;;;14.49;100.00;99698.09;5051000;28;20185;-60
2022/11/08 11:38:42;;;;;;;3.83;2.43;;;;;;;14.76;100.00;99695.16;5012538;28;20431;-61
2022/11/08 11:41:16;;;;;;;3.00;2.43;;;;;;;14.87;100.00;99693.47;5023179;28;20312;-64
2022/11/08 11:44:19;;;;;;;3.93;2.00;;;;;;;14.65;100.00;99693.41;5033545;28;20549;-61
2022/11/08 11:46:57;;;;;;;3.83;2.40;;;;;;;14.52;100.00;99696.09;5027781;28;20177;-61